sensor_id;sensor_type;location;lat;lon;timestamp;P1;durP1;ratioP1;P2;durP2;ratioP2
72408;SDS011;60402;48.082;11.628;2023-03-01T00:01:31;19.88;;;9.20;;
72408;SDS011;60402;48.082;11.628;2023-03-01T00:03:57;16.65;;;7.32;;
72408;SDS011;60402;48.082;11.628;2023-03-01T00:06:23;16.13;;;8.57;;
72408;SDS011;60402;48.082;11.628;2023-03-01T00:08:49;19.17;;;8.55;;
72408;SDS011;60402;48.082;11.628;2023-03-01T00:11:16;17.05;;;7.05;;
72408;SDS011;60402;48.082;11.628;2023-03-01T00:13:46;19.40;;;8.23;;
72408;SDS011;60402;48.082;11.628;2023-03-01T00:16:17;19.25;;;8.43;;
72408;SDS011;60402;48.082;11.628;2023-03-01T00:18:45;19.58;;;7.90;;
72408;SDS011;60402;48.082;11.628;2023-03-01T00:21:11;17.27;;;8.57;;
72408;SDS011;60402;48.082;11.628;2023-03-01T00:23:37;22.00;;;9.10;;
72408;SDS011;60402;48.082;11.628;2023-03-01T00:26:05;19.70;;;9.32;;
72408;SDS011;60402;48.082;11.628;2023-03-01T00:31:02;20.50;;;8.43;;
72408;SDS011;60402;48.082;11.628;2023-03-01T00:33:32;22.92;;;8.38;;
72408;SDS011;60402;48.082;11.628;2023-03-01T00:35:58;18.25;;;8.63;;
72408;SDS011;60402;48.082;11.628;2023-03-01T00:38:24;18.90;;;7.97;;
72408;SDS011;60402;48.082;11.628;2023-03-01T00:40:49;21.58;;;8.63;;
72408;SDS011;60402;48.082;11.628;2023-03-01T00:43:14;19.57;;;8.73;;
72408;SDS011;60402;48.082;11.628;2023-03-01T00:45:40;18.27;;;8.80;;
72408;SDS011;60402;48.082;11.628;2023-03-01T00:48:05;20.80;;;8.93;;
72408;SDS011;60402;48.082;11.628;2023-03-01T00:50:31;19.30;;;8.43;;
72408;SDS011;60402;48.082;11.628;2023-03-01T00:52:56;16.02;;;7.38;;
72408;SDS011;60402;48.082;11.628;2023-03-01T00:55:22;20.10;;;8.98;;
72408;SDS011;60402;48.082;11.628;2023-03-01T00:57:47;21.08;;;7.97;;
72408;SDS011;60402;48.082;11.628;2023-03-01T01:00:13;18.90;;;8.43;;
72408;SDS011;60402;48.082;11.628;2023-03-01T01:02:38;20.33;;;8.85;;
72408;SDS011;60402;48.082;11.628;2023-03-01T01:05:04;20.77;;;9.27;;
72408;SDS011;60402;48.082;11.628;2023-03-01T01:07:29;21.70;;;9.38;;
72408;SDS011;60402;48.082;11.628;2023-03-01T01:09:55;19.05;;;8.30;;
72408;SDS011;60402;48.082;11.628;2023-03-01T01:12:21;19.48;;;8.27;;
72408;SDS011;60402;48.082;11.628;2023-03-01T01:14:46;19.98;;;8.93;;
72408;SDS011;60402;48.082;11.628;2023-03-01T01:17:11;19.83;;;9.40;;
72408;SDS011;60402;48.082;11.628;2023-03-01T01:19:36;15.40;;;7.20;;
72408;SDS011;60402;48.082;11.628;2023-03-01T01:22:02;23.45;;;9.05;;
72408;SDS011;60402;48.082;11.628;2023-03-01T01:24:28;18.67;;;7.75;;
72408;SDS011;60402;48.082;11.628;2023-03-01T01:26:53;20.13;;;8.40;;
72408;SDS011;60402;48.082;11.628;2023-03-01T01:29:19;17.73;;;8.65;;
72408;SDS011;60402;48.082;11.628;2023-03-01T01:31:44;18.98;;;7.28;;
72408;SDS011;60402;48.082;11.628;2023-03-01T01:34:16;24.02;;;8.73;;
72408;SDS011;60402;48.082;11.628;2023-03-01T01:36:46;20.75;;;9.05;;
72408;SDS011;60402;48.082;11.628;2023-03-01T01:39:13;22.20;;;8.73;;
72408;SDS011;60402;48.082;11.628;2023-03-01T01:41:39;19.33;;;9.17;;
72408;SDS011;60402;48.082;11.628;2023-03-01T01:49:20;20.80;;;9.88;;
72408;SDS011;60402;48.082;11.628;2023-03-01T01:51:51;20.73;;;8.90;;
72408;SDS011;60402;48.082;11.628;2023-03-01T01:54:27;17.95;;;7.88;;
72408;SDS011;60402;48.082;11.628;2023-03-01T01:56:58;16.17;;;7.32;;
72408;SDS011;60402;48.082;11.628;2023-03-01T01:59:28;18.15;;;7.78;;
72408;SDS011;60402;48.082;11.628;2023-03-01T02:01:57;21.00;;;9.07;;
72408;SDS011;60402;48.082;11.628;2023-03-01T02:04:26;18.98;;;8.55;;
72408;SDS011;60402;48.082;11.628;2023-03-01T02:06:55;20.65;;;8.23;;
72408;SDS011;60402;48.082;11.628;2023-03-01T02:09:26;18.08;;;7.93;;
72408;SDS011;60402;48.082;11.628;2023-03-01T02:11:51;19.95;;;8.60;;
72408;SDS011;60402;48.082;11.628;2023-03-01T02:14:18;14.98;;;6.15;;
72408;SDS011;60402;48.082;11.628;2023-03-01T02:16:44;22.42;;;9.20;;
72408;SDS011;60402;48.082;11.628;2023-03-01T02:19:10;18.98;;;8.50;;
72408;SDS011;60402;48.082;11.628;2023-03-01T02:24:13;18.07;;;8.33;;
72408;SDS011;60402;48.082;11.628;2023-03-01T02:26:50;19.05;;;8.57;;
72408;SDS011;60402;48.082;11.628;2023-03-01T02:29:19;18.05;;;9.07;;
72408;SDS011;60402;48.082;11.628;2023-03-01T02:31:46;17.35;;;7.95;;
72408;SDS011;60402;48.082;11.628;2023-03-01T02:34:13;22.58;;;8.43;;
72408;SDS011;60402;48.082;11.628;2023-03-01T02:36:49;18.38;;;8.82;;
72408;SDS011;60402;48.082;11.628;2023-03-01T02:39:18;20.25;;;8.45;;
72408;SDS011;60402;48.082;11.628;2023-03-01T02:41:50;19.30;;;7.88;;
72408;SDS011;60402;48.082;11.628;2023-03-01T02:44:17;20.42;;;8.68;;
72408;SDS011;60402;48.082;11.628;2023-03-01T02:46:44;17.85;;;8.65;;
72408;SDS011;60402;48.082;11.628;2023-03-01T02:49:19;23.33;;;8.77;;
72408;SDS011;60402;48.082;11.628;2023-03-01T02:57:26;17.33;;;7.88;;
72408;SDS011;60402;48.082;11.628;2023-03-01T02:59:53;16.70;;;7.97;;
72408;SDS011;60402;48.082;11.628;2023-03-01T03:02:24;17.08;;;8.00;;
72408;SDS011;60402;48.082;11.628;2023-03-01T03:05:23;16.10;;;8.48;;
72408;SDS011;60402;48.082;11.628;2023-03-01T03:07:50;19.85;;;8.95;;
72408;SDS011;60402;48.082;11.628;2023-03-01T03:10:18;23.52;;;8.80;;
72408;SDS011;60402;48.082;11.628;2023-03-01T03:12:56;19.88;;;9.63;;
72408;SDS011;60402;48.082;11.628;2023-03-01T03:15:23;18.38;;;8.38;;
72408;SDS011;60402;48.082;11.628;2023-03-01T03:17:50;18.77;;;8.73;;
72408;SDS011;60402;48.082;11.628;2023-03-01T03:20:17;17.33;;;8.77;;
72408;SDS011;60402;48.082;11.628;2023-03-01T03:22:45;20.90;;;8.80;;
72408;SDS011;60402;48.082;11.628;2023-03-01T03:25:11;19.02;;;9.35;;
72408;SDS011;60402;48.082;11.628;2023-03-01T03:27:37;18.83;;;8.60;;
72408;SDS011;60402;48.082;11.628;2023-03-01T03:30:05;20.65;;;8.35;;
72408;SDS011;60402;48.082;11.628;2023-03-01T03:32:35;19.30;;;8.70;;
72408;SDS011;60402;48.082;11.628;2023-03-01T03:35:01;19.08;;;8.02;;
72408;SDS011;60402;48.082;11.628;2023-03-01T03:37:33;16.67;;;7.32;;
72408;SDS011;60402;48.082;11.628;2023-03-01T03:40:17;23.55;;;8.68;;
72408;SDS011;60402;48.082;11.628;2023-03-01T03:42:42;15.18;;;7.35;;
72408;SDS011;60402;48.082;11.628;2023-03-01T03:45:08;18.27;;;8.50;;
72408;SDS011;60402;48.082;11.628;2023-03-01T03:47:33;19.13;;;8.70;;
72408;SDS011;60402;48.082;11.628;2023-03-01T03:49:58;18.87;;;6.90;;
72408;SDS011;60402;48.082;11.628;2023-03-01T03:52:24;17.27;;;7.97;;
72408;SDS011;60402;48.082;11.628;2023-03-01T03:54:49;17.93;;;8.00;;
72408;SDS011;60402;48.082;11.628;2023-03-01T03:57:14;18.40;;;8.23;;
72408;SDS011;60402;48.082;11.628;2023-03-01T03:59:39;19.52;;;8.27;;
72408;SDS011;60402;48.082;11.628;2023-03-01T04:02:05;18.55;;;7.50;;
72408;SDS011;60402;48.082;11.628;2023-03-01T04:04:30;17.95;;;6.88;;
72408;SDS011;60402;48.082;11.628;2023-03-01T04:06:56;20.67;;;9.05;;
72408;SDS011;60402;48.082;11.628;2023-03-01T04:09:21;19.40;;;8.10;;
72408;SDS011;60402;48.082;11.628;2023-03-01T04:11:46;19.70;;;8.27;;
72408;SDS011;60402;48.082;11.628;2023-03-01T04:14:11;19.00;;;7.60;;
72408;SDS011;60402;48.082;11.628;2023-03-01T04:16:37;16.00;;;7.67;;
72408;SDS011;60402;48.082;11.628;2023-03-01T04:19:02;16.73;;;7.10;;
72408;SDS011;60402;48.082;11.628;2023-03-01T04:21:27;22.48;;;8.55;;
72408;SDS011;60402;48.082;11.628;2023-03-01T04:23:53;17.90;;;8.32;;
72408;SDS011;60402;48.082;11.628;2023-03-01T04:26:18;22.55;;;9.68;;
72408;SDS011;60402;48.082;11.628;2023-03-01T04:28:50;21.27;;;9.15;;
72408;SDS011;60402;48.082;11.628;2023-03-01T04:31:16;19.58;;;9.05;;
72408;SDS011;60402;48.082;11.628;2023-03-01T04:36:14;18.23;;;7.57;;
72408;SDS011;60402;48.082;11.628;2023-03-01T04:38:40;20.40;;;7.68;;
72408;SDS011;60402;48.082;11.628;2023-03-01T04:41:07;18.63;;;9.27;;
72408;SDS011;60402;48.082;11.628;2023-03-01T04:43:36;18.40;;;8.18;;
72408;SDS011;60402;48.082;11.628;2023-03-01T04:46:02;18.20;;;8.07;;
72408;SDS011;60402;48.082;11.628;2023-03-01T04:48:30;17.33;;;8.23;;
72408;SDS011;60402;48.082;11.628;2023-03-01T04:50:55;18.60;;;8.48;;
72408;SDS011;60402;48.082;11.628;2023-03-01T04:53:20;17.23;;;7.22;;
72408;SDS011;60402;48.082;11.628;2023-03-01T04:55:46;20.20;;;7.93;;
72408;SDS011;60402;48.082;11.628;2023-03-01T04:58:11;19.13;;;9.40;;
72408;SDS011;60402;48.082;11.628;2023-03-01T05:00:36;19.13;;;8.45;;
72408;SDS011;60402;48.082;11.628;2023-03-01T05:03:02;17.13;;;7.88;;
72408;SDS011;60402;48.082;11.628;2023-03-01T05:05:31;20.63;;;8.33;;
72408;SDS011;60402;48.082;11.628;2023-03-01T05:07:59;12.15;;;5.97;;
72408;SDS011;60402;48.082;11.628;2023-03-01T05:10:26;18.52;;;8.05;;
72408;SDS011;60402;48.082;11.628;2023-03-01T05:12:56;15.95;;;7.47;;
72408;SDS011;60402;48.082;11.628;2023-03-01T05:15:22;19.65;;;8.40;;
72408;SDS011;60402;48.082;11.628;2023-03-01T05:17:52;21.73;;;9.63;;
72408;SDS011;60402;48.082;11.628;2023-03-01T05:20:19;17.33;;;7.32;;
72408;SDS011;60402;48.082;11.628;2023-03-01T05:22:47;17.20;;;7.80;;
72408;SDS011;60402;48.082;11.628;2023-03-01T05:25:13;18.90;;;8.10;;
72408;SDS011;60402;48.082;11.628;2023-03-01T05:27:39;19.08;;;8.48;;
72408;SDS011;60402;48.082;11.628;2023-03-01T05:30:04;15.85;;;7.30;;
72408;SDS011;60402;48.082;11.628;2023-03-01T05:32:38;13.18;;;6.63;;
72408;SDS011;60402;48.082;11.628;2023-03-01T05:35:15;20.35;;;9.45;;
72408;SDS011;60402;48.082;11.628;2023-03-01T05:37:42;17.77;;;8.68;;
72408;SDS011;60402;48.082;11.628;2023-03-01T05:40:10;18.70;;;8.43;;
72408;SDS011;60402;48.082;11.628;2023-03-01T05:42:53;19.52;;;8.70;;
72408;SDS011;60402;48.082;11.628;2023-03-01T05:45:20;19.02;;;8.40;;
72408;SDS011;60402;48.082;11.628;2023-03-01T05:47:47;18.17;;;8.20;;
72408;SDS011;60402;48.082;11.628;2023-03-01T05:50:15;19.33;;;9.63;;
72408;SDS011;60402;48.082;11.628;2023-03-01T05:52:46;18.40;;;8.70;;
72408;SDS011;60402;48.082;11.628;2023-03-01T05:55:13;16.67;;;7.13;;
72408;SDS011;60402;48.082;11.628;2023-03-01T05:57:40;19.10;;;8.70;;
72408;SDS011;60402;48.082;11.628;2023-03-01T06:00:06;19.92;;;7.57;;
72408;SDS011;60402;48.082;11.628;2023-03-01T06:02:32;20.88;;;9.45;;
72408;SDS011;60402;48.082;11.628;2023-03-01T06:04:57;18.30;;;7.97;;
72408;SDS011;60402;48.082;11.628;2023-03-01T06:07:23;21.60;;;8.18;;
72408;SDS011;60402;48.082;11.628;2023-03-01T06:09:48;20.65;;;8.65;;
72408;SDS011;60402;48.082;11.628;2023-03-01T06:12:13;21.05;;;8.70;;
72408;SDS011;60402;48.082;11.628;2023-03-01T06:14:39;17.43;;;7.23;;
72408;SDS011;60402;48.082;11.628;2023-03-01T06:17:04;21.07;;;7.17;;
72408;SDS011;60402;48.082;11.628;2023-03-01T06:19:29;18.47;;;8.10;;
72408;SDS011;60402;48.082;11.628;2023-03-01T06:21:54;22.58;;;8.93;;
72408;SDS011;60402;48.082;11.628;2023-03-01T06:24:20;16.02;;;7.07;;
72408;SDS011;60402;48.082;11.628;2023-03-01T06:26:45;17.90;;;8.02;;
72408;SDS011;60402;48.082;11.628;2023-03-01T06:29:10;20.67;;;8.48;;
72408;SDS011;60402;48.082;11.628;2023-03-01T06:31:36;20.77;;;8.55;;
72408;SDS011;60402;48.082;11.628;2023-03-01T06:34:01;16.60;;;8.00;;
72408;SDS011;60402;48.082;11.628;2023-03-01T06:36:27;25.58;;;8.60;;
72408;SDS011;60402;48.082;11.628;2023-03-01T06:38:52;18.67;;;9.23;;
72408;SDS011;60402;48.082;11.628;2023-03-01T06:41:18;18.42;;;8.10;;
72408;SDS011;60402;48.082;11.628;2023-03-01T06:43:43;22.25;;;8.52;;
72408;SDS011;60402;48.082;11.628;2023-03-01T06:46:08;22.50;;;9.40;;
72408;SDS011;60402;48.082;11.628;2023-03-01T06:48:34;17.10;;;7.53;;
72408;SDS011;60402;48.082;11.628;2023-03-01T06:51:00;23.15;;;8.95;;
72408;SDS011;60402;48.082;11.628;2023-03-01T06:53:26;18.75;;;9.05;;
72408;SDS011;60402;48.082;11.628;2023-03-01T06:55:57;27.50;;;9.70;;
72408;SDS011;60402;48.082;11.628;2023-03-01T06:58:25;21.88;;;9.73;;
72408;SDS011;60402;48.082;11.628;2023-03-01T07:00:50;21.00;;;9.65;;
72408;SDS011;60402;48.082;11.628;2023-03-01T07:03:16;18.73;;;7.97;;
72408;SDS011;60402;48.082;11.628;2023-03-01T07:05:41;21.00;;;8.10;;
72408;SDS011;60402;48.082;11.628;2023-03-01T07:08:07;23.60;;;8.82;;
72408;SDS011;60402;48.082;11.628;2023-03-01T07:10:32;16.43;;;7.73;;
72408;SDS011;60402;48.082;11.628;2023-03-01T07:12:58;16.73;;;8.00;;
72408;SDS011;60402;48.082;11.628;2023-03-01T07:15:24;21.08;;;8.98;;
72408;SDS011;60402;48.082;11.628;2023-03-01T07:17:50;17.70;;;7.35;;
72408;SDS011;60402;48.082;11.628;2023-03-01T07:20:16;13.13;;;5.68;;
72408;SDS011;60402;48.082;11.628;2023-03-01T07:22:42;19.90;;;8.60;;
72408;SDS011;60402;48.082;11.628;2023-03-01T07:25:08;19.38;;;8.45;;
72408;SDS011;60402;48.082;11.628;2023-03-01T07:27:34;22.85;;;9.07;;
72408;SDS011;60402;48.082;11.628;2023-03-01T07:30:00;19.52;;;8.25;;
72408;SDS011;60402;48.082;11.628;2023-03-01T07:32:25;24.65;;;9.35;;
72408;SDS011;60402;48.082;11.628;2023-03-01T07:34:51;23.45;;;9.13;;
72408;SDS011;60402;48.082;11.628;2023-03-01T07:37:16;23.40;;;9.45;;
72408;SDS011;60402;48.082;11.628;2023-03-01T07:39:42;20.88;;;8.57;;
72408;SDS011;60402;48.082;11.628;2023-03-01T07:42:07;23.25;;;9.48;;
72408;SDS011;60402;48.082;11.628;2023-03-01T07:44:32;21.70;;;8.93;;
72408;SDS011;60402;48.082;11.628;2023-03-01T07:46:59;22.20;;;9.20;;
72408;SDS011;60402;48.082;11.628;2023-03-01T07:49:24;24.67;;;9.85;;
72408;SDS011;60402;48.082;11.628;2023-03-01T07:51:51;19.92;;;8.85;;
72408;SDS011;60402;48.082;11.628;2023-03-01T07:54:17;24.85;;;9.52;;
72408;SDS011;60402;48.082;11.628;2023-03-01T07:56:43;22.98;;;9.13;;
72408;SDS011;60402;48.082;11.628;2023-03-01T07:59:08;27.17;;;8.85;;
72408;SDS011;60402;48.082;11.628;2023-03-01T08:01:34;20.42;;;9.35;;
72408;SDS011;60402;48.082;11.628;2023-03-01T08:04:00;22.25;;;8.82;;
72408;SDS011;60402;48.082;11.628;2023-03-01T08:06:26;23.63;;;9.60;;
72408;SDS011;60402;48.082;11.628;2023-03-01T08:08:52;20.73;;;8.05;;
72408;SDS011;60402;48.082;11.628;2023-03-01T08:11:17;20.42;;;9.35;;
72408;SDS011;60402;48.082;11.628;2023-03-01T08:13:42;20.95;;;9.25;;
72408;SDS011;60402;48.082;11.628;2023-03-01T08:16:12;20.48;;;8.77;;
72408;SDS011;60402;48.082;11.628;2023-03-01T08:18:39;18.25;;;9.00;;
72408;SDS011;60402;48.082;11.628;2023-03-01T08:21:05;23.92;;;10.15;;
72408;SDS011;60402;48.082;11.628;2023-03-01T08:23:32;22.25;;;9.38;;
72408;SDS011;60402;48.082;11.628;2023-03-01T08:26:07;15.90;;;6.78;;
72408;SDS011;60402;48.082;11.628;2023-03-01T08:28:35;19.65;;;8.43;;
72408;SDS011;60402;48.082;11.628;2023-03-01T08:31:00;20.77;;;8.85;;
72408;SDS011;60402;48.082;11.628;2023-03-01T08:33:26;27.48;;;11.02;;
72408;SDS011;60402;48.082;11.628;2023-03-01T08:35:51;16.55;;;7.40;;
72408;SDS011;60402;48.082;11.628;2023-03-01T08:38:17;22.10;;;8.38;;
72408;SDS011;60402;48.082;11.628;2023-03-01T08:40:42;20.73;;;8.82;;
72408;SDS011;60402;48.082;11.628;2023-03-01T08:43:07;24.07;;;9.53;;
72408;SDS011;60402;48.082;11.628;2023-03-01T08:45:32;20.40;;;9.40;;
72408;SDS011;60402;48.082;11.628;2023-03-01T08:47:58;23.92;;;10.55;;
72408;SDS011;60402;48.082;11.628;2023-03-01T08:50:23;23.95;;;10.30;;
72408;SDS011;60402;48.082;11.628;2023-03-01T08:52:49;23.65;;;9.35;;
72408;SDS011;60402;48.082;11.628;2023-03-01T08:55:14;24.60;;;9.90;;
72408;SDS011;60402;48.082;11.628;2023-03-01T08:57:42;22.92;;;8.95;;
72408;SDS011;60402;48.082;11.628;2023-03-01T09:00:08;25.02;;;10.23;;
72408;SDS011;60402;48.082;11.628;2023-03-01T09:02:34;20.67;;;9.27;;
72408;SDS011;60402;48.082;11.628;2023-03-01T09:04:59;25.67;;;9.90;;
72408;SDS011;60402;48.082;11.628;2023-03-01T09:07:25;22.47;;;10.40;;
72408;SDS011;60402;48.082;11.628;2023-03-01T09:09:53;25.00;;;9.70;;
72408;SDS011;60402;48.082;11.628;2023-03-01T09:12:19;21.42;;;10.00;;
72408;SDS011;60402;48.082;11.628;2023-03-01T09:14:44;26.77;;;10.70;;
72408;SDS011;60402;48.082;11.628;2023-03-01T09:17:10;24.25;;;10.68;;
72408;SDS011;60402;48.082;11.628;2023-03-01T09:19:35;24.10;;;9.65;;
72408;SDS011;60402;48.082;11.628;2023-03-01T09:22:00;24.77;;;9.98;;
72408;SDS011;60402;48.082;11.628;2023-03-01T09:24:28;26.23;;;9.82;;
72408;SDS011;60402;48.082;11.628;2023-03-01T09:26:54;26.65;;;10.25;;
72408;SDS011;60402;48.082;11.628;2023-03-01T09:29:20;27.45;;;10.48;;
72408;SDS011;60402;48.082;11.628;2023-03-01T09:31:46;23.73;;;10.23;;
72408;SDS011;60402;48.082;11.628;2023-03-01T09:34:11;21.63;;;10.77;;
72408;SDS011;60402;48.082;11.628;2023-03-01T09:36:36;24.90;;;10.52;;
72408;SDS011;60402;48.082;11.628;2023-03-01T09:39:02;24.27;;;10.57;;
72408;SDS011;60402;48.082;11.628;2023-03-01T09:44:36;25.17;;;9.57;;
72408;SDS011;60402;48.082;11.628;2023-03-01T09:47:12;25.95;;;9.95;;
72408;SDS011;60402;48.082;11.628;2023-03-01T09:49:46;23.17;;;10.32;;
72408;SDS011;60402;48.082;11.628;2023-03-01T09:55:10;22.25;;;9.07;;
72408;SDS011;60402;48.082;11.628;2023-03-01T09:57:56;27.55;;;10.82;;
72408;SDS011;60402;48.082;11.628;2023-03-01T10:00:47;23.85;;;10.05;;
72408;SDS011;60402;48.082;11.628;2023-03-01T10:08:35;15.50;;;7.63;;
72408;SDS011;60402;48.082;11.628;2023-03-01T10:11:12;20.73;;;9.90;;
72408;SDS011;60402;48.082;11.628;2023-03-01T10:19:05;19.98;;;8.98;;
72408;SDS011;60402;48.082;11.628;2023-03-01T10:21:36;27.30;;;10.75;;
72408;SDS011;60402;48.082;11.628;2023-03-01T10:24:12;29.52;;;10.88;;
72408;SDS011;60402;48.082;11.628;2023-03-01T10:29:16;22.33;;;9.15;;
72408;SDS011;60402;48.082;11.628;2023-03-01T10:34:19;19.75;;;8.20;;
72408;SDS011;60402;48.082;11.628;2023-03-01T10:39:16;21.02;;;8.95;;
72408;SDS011;60402;48.082;11.628;2023-03-01T10:44:43;23.80;;;8.93;;
72408;SDS011;60402;48.082;11.628;2023-03-01T10:47:18;20.25;;;9.07;;
72408;SDS011;60402;48.082;11.628;2023-03-01T10:49:53;22.25;;;9.10;;
72408;SDS011;60402;48.082;11.628;2023-03-01T10:52:25;22.23;;;9.52;;
72408;SDS011;60402;48.082;11.628;2023-03-01T10:54:57;21.73;;;10.35;;
72408;SDS011;60402;48.082;11.628;2023-03-01T10:57:27;22.30;;;9.02;;
72408;SDS011;60402;48.082;11.628;2023-03-01T11:00:14;23.10;;;9.30;;
72408;SDS011;60402;48.082;11.628;2023-03-01T11:03:00;16.45;;;7.13;;
72408;SDS011;60402;48.082;11.628;2023-03-01T11:05:28;23.25;;;9.50;;
72408;SDS011;60402;48.082;11.628;2023-03-01T11:07:58;22.13;;;9.20;;
72408;SDS011;60402;48.082;11.628;2023-03-01T11:10:43;21.33;;;9.52;;
72408;SDS011;60402;48.082;11.628;2023-03-01T11:13:13;28.95;;;10.50;;
72408;SDS011;60402;48.082;11.628;2023-03-01T11:15:41;23.50;;;10.10;;
72408;SDS011;60402;48.082;11.628;2023-03-01T11:18:20;20.40;;;9.43;;
72408;SDS011;60402;48.082;11.628;2023-03-01T11:20:47;25.38;;;11.27;;
72408;SDS011;60402;48.082;11.628;2023-03-01T11:23:16;25.60;;;10.05;;
72408;SDS011;60402;48.082;11.628;2023-03-01T11:25:43;20.05;;;9.60;;
72408;SDS011;60402;48.082;11.628;2023-03-01T11:28:15;23.15;;;10.25;;
72408;SDS011;60402;48.082;11.628;2023-03-01T11:38:27;23.83;;;9.87;;
72408;SDS011;60402;48.082;11.628;2023-03-01T11:40:59;22.85;;;9.85;;
72408;SDS011;60402;48.082;11.628;2023-03-01T11:46:18;24.88;;;10.00;;
72408;SDS011;60402;48.082;11.628;2023-03-01T11:48:52;28.52;;;10.77;;
72408;SDS011;60402;48.082;11.628;2023-03-01T11:51:49;23.90;;;9.35;;
72408;SDS011;60402;48.082;11.628;2023-03-01T11:57:39;24.70;;;9.85;;
72408;SDS011;60402;48.082;11.628;2023-03-01T12:00:14;23.75;;;10.10;;
72408;SDS011;60402;48.082;11.628;2023-03-01T12:08:41;27.20;;;11.10;;
72408;SDS011;60402;48.082;11.628;2023-03-01T12:13:58;24.77;;;10.82;;
72408;SDS011;60402;48.082;11.628;2023-03-01T12:22:32;22.38;;;10.07;;
72408;SDS011;60402;48.082;11.628;2023-03-01T12:38:52;25.05;;;10.68;;
72408;SDS011;60402;48.082;11.628;2023-03-01T12:46:50;25.33;;;10.90;;
72408;SDS011;60402;48.082;11.628;2023-03-01T12:49:19;24.58;;;11.20;;
72408;SDS011;60402;48.082;11.628;2023-03-01T12:51:59;28.40;;;12.23;;
72408;SDS011;60402;48.082;11.628;2023-03-01T12:54:33;24.38;;;11.77;;
72408;SDS011;60402;48.082;11.628;2023-03-01T12:57:24;26.60;;;11.57;;
72408;SDS011;60402;48.082;11.628;2023-03-01T13:02:49;22.33;;;10.05;;
72408;SDS011;60402;48.082;11.628;2023-03-01T13:05:24;22.10;;;11.18;;
72408;SDS011;60402;48.082;11.628;2023-03-01T13:08:08;23.92;;;11.57;;
72408;SDS011;60402;48.082;11.628;2023-03-01T13:13:25;28.40;;;12.13;;
72408;SDS011;60402;48.082;11.628;2023-03-01T13:15:52;24.67;;;10.63;;
72408;SDS011;60402;48.082;11.628;2023-03-01T13:20:56;25.58;;;10.85;;
72408;SDS011;60402;48.082;11.628;2023-03-01T13:23:28;22.15;;;11.13;;
72408;SDS011;60402;48.082;11.628;2023-03-01T13:30:56;29.30;;;11.48;;
72408;SDS011;60402;48.082;11.628;2023-03-01T13:35:54;25.77;;;11.50;;
72408;SDS011;60402;48.082;11.628;2023-03-01T13:46:42;25.02;;;11.15;;
72408;SDS011;60402;48.082;11.628;2023-03-01T13:49:09;25.92;;;10.98;;
72408;SDS011;60402;48.082;11.628;2023-03-01T13:51:39;26.27;;;11.20;;
72408;SDS011;60402;48.082;11.628;2023-03-01T13:54:04;22.08;;;10.27;;
72408;SDS011;60402;48.082;11.628;2023-03-01T13:56:35;26.70;;;10.88;;
72408;SDS011;60402;48.082;11.628;2023-03-01T13:59:03;27.13;;;11.73;;
72408;SDS011;60402;48.082;11.628;2023-03-01T14:01:33;26.35;;;11.00;;
72408;SDS011;60402;48.082;11.628;2023-03-01T14:04:00;30.63;;;11.35;;
72408;SDS011;60402;48.082;11.628;2023-03-01T14:06:43;26.50;;;10.63;;
72408;SDS011;60402;48.082;11.628;2023-03-01T14:09:10;28.25;;;12.38;;
72408;SDS011;60402;48.082;11.628;2023-03-01T14:20:24;25.30;;;11.50;;
72408;SDS011;60402;48.082;11.628;2023-03-01T14:22:53;27.02;;;11.95;;
72408;SDS011;60402;48.082;11.628;2023-03-01T14:25:28;24.00;;;11.48;;
72408;SDS011;60402;48.082;11.628;2023-03-01T14:30:23;26.20;;;11.32;;
72408;SDS011;60402;48.082;11.628;2023-03-01T14:32:57;23.77;;;11.18;;
72408;SDS011;60402;48.082;11.628;2023-03-01T14:35:25;28.25;;;11.57;;
72408;SDS011;60402;48.082;11.628;2023-03-01T14:37:52;24.13;;;11.05;;
72408;SDS011;60402;48.082;11.628;2023-03-01T14:40:22;26.50;;;11.63;;
72408;SDS011;60402;48.082;11.628;2023-03-01T14:42:59;26.63;;;12.05;;
72408;SDS011;60402;48.082;11.628;2023-03-01T14:45:27;28.52;;;10.95;;
72408;SDS011;60402;48.082;11.628;2023-03-01T14:47:55;25.25;;;10.90;;
72408;SDS011;60402;48.082;11.628;2023-03-01T14:50:26;22.40;;;10.85;;
72408;SDS011;60402;48.082;11.628;2023-03-01T14:52:55;27.42;;;11.73;;
72408;SDS011;60402;48.082;11.628;2023-03-01T14:55:29;26.42;;;11.70;;
72408;SDS011;60402;48.082;11.628;2023-03-01T14:57:58;23.40;;;10.75;;
72408;SDS011;60402;48.082;11.628;2023-03-01T15:00:27;21.88;;;10.10;;
72408;SDS011;60402;48.082;11.628;2023-03-01T15:02:55;26.98;;;10.90;;
72408;SDS011;60402;48.082;11.628;2023-03-01T15:05:28;26.58;;;10.50;;
72408;SDS011;60402;48.082;11.628;2023-03-01T15:07:56;22.65;;;9.60;;
72408;SDS011;60402;48.082;11.628;2023-03-01T15:10:25;25.88;;;10.23;;
72408;SDS011;60402;48.082;11.628;2023-03-01T15:12:52;20.70;;;9.90;;
72408;SDS011;60402;48.082;11.628;2023-03-01T15:15:19;26.80;;;10.90;;
72408;SDS011;60402;48.082;11.628;2023-03-01T15:17:49;25.92;;;10.38;;
72408;SDS011;60402;48.082;11.628;2023-03-01T15:20:20;22.05;;;10.57;;
72408;SDS011;60402;48.082;11.628;2023-03-01T15:22:46;23.00;;;10.63;;
72408;SDS011;60402;48.082;11.628;2023-03-01T15:25:19;24.95;;;9.90;;
72408;SDS011;60402;48.082;11.628;2023-03-01T15:27:48;24.35;;;9.98;;
72408;SDS011;60402;48.082;11.628;2023-03-01T15:30:22;21.08;;;10.10;;
72408;SDS011;60402;48.082;11.628;2023-03-01T15:36:03;21.23;;;9.48;;
72408;SDS011;60402;48.082;11.628;2023-03-01T15:38:52;25.33;;;11.55;;
72408;SDS011;60402;48.082;11.628;2023-03-01T15:41:25;20.88;;;9.63;;
72408;SDS011;60402;48.082;11.628;2023-03-01T15:43:56;22.40;;;9.77;;
72408;SDS011;60402;48.082;11.628;2023-03-01T15:46:30;23.50;;;9.60;;
72408;SDS011;60402;48.082;11.628;2023-03-01T15:49:43;27.20;;;12.13;;
72408;SDS011;60402;48.082;11.628;2023-03-01T15:51:50;21.23;;;9.48;;
72408;SDS011;60402;48.082;11.628;2023-03-01T15:54:19;23.50;;;10.13;;
72408;SDS011;60402;48.082;11.628;2023-03-01T15:56:47;26.08;;;9.95;;
72408;SDS011;60402;48.082;11.628;2023-03-01T15:59:12;21.80;;;9.40;;
72408;SDS011;60402;48.082;11.628;2023-03-01T16:01:39;23.23;;;10.05;;
72408;SDS011;60402;48.082;11.628;2023-03-01T16:04:04;25.10;;;9.93;;
72408;SDS011;60402;48.082;11.628;2023-03-01T16:06:30;26.10;;;10.63;;
72408;SDS011;60402;48.082;11.628;2023-03-01T16:08:55;19.73;;;9.32;;
72408;SDS011;60402;48.082;11.628;2023-03-01T16:11:21;21.50;;;9.85;;
72408;SDS011;60402;48.082;11.628;2023-03-01T16:13:46;20.95;;;11.10;;
72408;SDS011;60402;48.082;11.628;2023-03-01T16:16:13;24.92;;;11.25;;
72408;SDS011;60402;48.082;11.628;2023-03-01T16:18:44;21.92;;;10.07;;
72408;SDS011;60402;48.082;11.628;2023-03-01T16:21:20;21.30;;;9.18;;
72408;SDS011;60402;48.082;11.628;2023-03-01T16:23:47;21.60;;;9.18;;
72408;SDS011;60402;48.082;11.628;2023-03-01T16:26:12;24.17;;;9.38;;
72408;SDS011;60402;48.082;11.628;2023-03-01T16:28:39;28.45;;;12.43;;
72408;SDS011;60402;48.082;11.628;2023-03-01T16:31:05;26.08;;;12.15;;
72408;SDS011;60402;48.082;11.628;2023-03-01T16:33:31;28.85;;;13.32;;
72408;SDS011;60402;48.082;11.628;2023-03-01T16:35:57;30.27;;;14.35;;
72408;SDS011;60402;48.082;11.628;2023-03-01T16:38:24;27.63;;;12.50;;